sensor_id;sensor_type;location;lat;lon;timestamp;P1;durP1;ratioP1;P2;durP2;ratioP2
61915;SDS011;47868;51.326;6.550;2024-02-26T00:01:26;3.85;;;2.15;;
61915;SDS011;47868;51.326;6.550;2024-02-26T00:03:52;2.35;;;2.08;;
61915;SDS011;47868;51.326;6.550;2024-02-26T00:06:19;2.28;;;2.08;;
61915;SDS011;47868;51.326;6.550;2024-02-26T00:08:45;2.70;;;2.30;;
61915;SDS011;47868;51.326;6.550;2024-02-26T00:11:11;3.70;;;2.63;;
61915;SDS011;47868;51.326;6.550;2024-02-26T00:13:37;3.28;;;2.65;;
61915;SDS011;47868;51.326;6.550;2024-02-26T00:16:06;3.97;;;2.40;;
61915;SDS011;47868;51.326;6.550;2024-02-26T00:18:32;4.30;;;2.22;;
61915;SDS011;47868;51.326;6.550;2024-02-26T00:20:59;3.15;;;2.33;;
61915;SDS011;47868;51.326;6.550;2024-02-26T00:23:25;2.95;;;2.28;;
61915;SDS011;47868;51.326;6.550;2024-02-26T00:25:52;3.33;;;2.85;;
61915;SDS011;47868;51.326;6.550;2024-02-26T00:28:18;3.60;;;2.50;;
61915;SDS011;47868;51.326;6.550;2024-02-26T00:30:47;4.95;;;2.55;;
61915;SDS011;47868;51.326;6.550;2024-02-26T00:33:16;4.28;;;3.13;;
61915;SDS011;47868;51.326;6.550;2024-02-26T00:35:43;2.88;;;2.65;;
61915;SDS011;47868;51.326;6.550;2024-02-26T00:38:09;4.45;;;2.67;;
61915;SDS011;47868;51.326;6.550;2024-02-26T00:40:35;3.33;;;3.03;;
61915;SDS011;47868;51.326;6.550;2024-02-26T00:43:01;4.55;;;2.65;;
61915;SDS011;47868;51.326;6.550;2024-02-26T00:45:27;3.17;;;2.83;;
61915;SDS011;47868;51.326;6.550;2024-02-26T00:47:53;4.88;;;3.10;;
61915;SDS011;47868;51.326;6.550;2024-02-26T00:50:19;3.47;;;2.50;;
61915;SDS011;47868;51.326;6.550;2024-02-26T00:52:45;4.75;;;3.03;;
61915;SDS011;47868;51.326;6.550;2024-02-26T00:55:11;4.20;;;2.72;;
61915;SDS011;47868;51.326;6.550;2024-02-26T00:57:37;5.53;;;2.60;;
61915;SDS011;47868;51.326;6.550;2024-02-26T01:00:03;3.45;;;2.60;;
61915;SDS011;47868;51.326;6.550;2024-02-26T01:02:29;3.63;;;2.53;;
61915;SDS011;47868;51.326;6.550;2024-02-26T01:04:55;4.65;;;2.10;;
61915;SDS011;47868;51.326;6.550;2024-02-26T01:07:21;4.68;;;2.63;;
61915;SDS011;47868;51.326;6.550;2024-02-26T01:09:47;2.72;;;2.33;;
61915;SDS011;47868;51.326;6.550;2024-02-26T01:12:13;2.38;;;1.80;;
61915;SDS011;47868;51.326;6.550;2024-02-26T01:14:40;2.22;;;1.98;;
61915;SDS011;47868;51.326;6.550;2024-02-26T01:17:06;3.75;;;2.80;;
61915;SDS011;47868;51.326;6.550;2024-02-26T01:19:32;3.03;;;2.28;;
61915;SDS011;47868;51.326;6.550;2024-02-26T01:21:58;2.95;;;2.00;;
61915;SDS011;47868;51.326;6.550;2024-02-26T01:24:24;3.03;;;2.25;;
61915;SDS011;47868;51.326;6.550;2024-02-26T01:26:50;3.65;;;2.42;;
61915;SDS011;47868;51.326;6.550;2024-02-26T01:29:16;3.72;;;2.17;;
61915;SDS011;47868;51.326;6.550;2024-02-26T01:31:42;4.40;;;2.28;;
61915;SDS011;47868;51.326;6.550;2024-02-26T01:34:08;3.13;;;2.20;;
61915;SDS011;47868;51.326;6.550;2024-02-26T01:36:34;2.50;;;2.10;;
61915;SDS011;47868;51.326;6.550;2024-02-26T01:39:00;2.40;;;2.10;;
61915;SDS011;47868;51.326;6.550;2024-02-26T01:41:28;3.13;;;2.20;;
61915;SDS011;47868;51.326;6.550;2024-02-26T01:43:54;2.42;;;2.20;;
61915;SDS011;47868;51.326;6.550;2024-02-26T01:46:20;2.30;;;2.10;;
61915;SDS011;47868;51.326;6.550;2024-02-26T01:48:47;3.65;;;2.15;;
61915;SDS011;47868;51.326;6.550;2024-02-26T01:51:14;2.13;;;1.90;;
61915;SDS011;47868;51.326;6.550;2024-02-26T01:53:41;2.53;;;2.05;;
61915;SDS011;47868;51.326;6.550;2024-02-26T01:56:08;3.78;;;2.20;;
61915;SDS011;47868;51.326;6.550;2024-02-26T01:58:34;1.80;;;1.70;;
61915;SDS011;47868;51.326;6.550;2024-02-26T02:01:01;1.98;;;1.77;;
61915;SDS011;47868;51.326;6.550;2024-02-26T02:03:28;2.33;;;1.90;;
61915;SDS011;47868;51.326;6.550;2024-02-26T02:05:54;3.10;;;2.05;;
61915;SDS011;47868;51.326;6.550;2024-02-26T02:08:20;3.72;;;2.00;;
61915;SDS011;47868;51.326;6.550;2024-02-26T02:10:47;2.20;;;1.77;;
61915;SDS011;47868;51.326;6.550;2024-02-26T02:13:14;2.00;;;1.80;;
61915;SDS011;47868;51.326;6.550;2024-02-26T02:15:40;2.55;;;2.15;;
61915;SDS011;47868;51.326;6.550;2024-02-26T02:18:06;3.90;;;2.10;;
61915;SDS011;47868;51.326;6.550;2024-02-26T02:20:32;6.32;;;2.60;;
61915;SDS011;47868;51.326;6.550;2024-02-26T02:23:02;2.67;;;2.35;;
61915;SDS011;47868;51.326;6.550;2024-02-26T02:25:28;4.40;;;2.45;;
61915;SDS011;47868;51.326;6.550;2024-02-26T02:27:54;3.05;;;2.40;;
61915;SDS011;47868;51.326;6.550;2024-02-26T02:30:24;4.32;;;2.08;;
61915;SDS011;47868;51.326;6.550;2024-02-26T02:32:51;2.80;;;2.38;;
61915;SDS011;47868;51.326;6.550;2024-02-26T02:35:17;6.10;;;2.13;;
61915;SDS011;47868;51.326;6.550;2024-02-26T02:37:43;3.35;;;2.30;;
61915;SDS011;47868;51.326;6.550;2024-02-26T02:40:09;4.88;;;2.33;;
61915;SDS011;47868;51.326;6.550;2024-02-26T02:42:35;6.38;;;2.70;;
61915;SDS011;47868;51.326;6.550;2024-02-26T02:45:01;4.22;;;2.67;;
61915;SDS011;47868;51.326;6.550;2024-02-26T02:47:27;4.25;;;2.75;;
61915;SDS011;47868;51.326;6.550;2024-02-26T02:49:53;6.32;;;2.58;;
61915;SDS011;47868;51.326;6.550;2024-02-26T02:52:19;2.55;;;2.28;;
61915;SDS011;47868;51.326;6.550;2024-02-26T02:54:45;3.42;;;2.60;;
61915;SDS011;47868;51.326;6.550;2024-02-26T02:57:12;4.65;;;2.75;;
61915;SDS011;47868;51.326;6.550;2024-02-26T02:59:38;4.78;;;2.83;;
61915;SDS011;47868;51.326;6.550;2024-02-26T03:02:04;6.75;;;3.08;;
61915;SDS011;47868;51.326;6.550;2024-02-26T03:04:31;3.92;;;3.00;;
61915;SDS011;47868;51.326;6.550;2024-02-26T03:06:57;5.57;;;3.50;;
61915;SDS011;47868;51.326;6.550;2024-02-26T03:09:23;9.35;;;4.70;;
61915;SDS011;47868;51.326;6.550;2024-02-26T03:11:49;7.45;;;4.35;;
61915;SDS011;47868;51.326;6.550;2024-02-26T03:14:15;7.45;;;4.47;;
61915;SDS011;47868;51.326;6.550;2024-02-26T03:16:41;7.00;;;3.90;;
61915;SDS011;47868;51.326;6.550;2024-02-26T03:19:07;5.47;;;3.65;;
61915;SDS011;47868;51.326;6.550;2024-02-26T03:21:33;5.13;;;3.53;;
61915;SDS011;47868;51.326;6.550;2024-02-26T03:23:59;3.53;;;3.00;;
61915;SDS011;47868;51.326;6.550;2024-02-26T03:26:25;5.15;;;2.88;;
61915;SDS011;47868;51.326;6.550;2024-02-26T03:28:51;7.63;;;3.95;;
61915;SDS011;47868;51.326;6.550;2024-02-26T03:31:17;4.40;;;3.70;;
61915;SDS011;47868;51.326;6.550;2024-02-26T03:33:43;4.22;;;3.15;;
61915;SDS011;47868;51.326;6.550;2024-02-26T03:36:09;4.82;;;3.42;;
61915;SDS011;47868;51.326;6.550;2024-02-26T03:38:36;6.45;;;3.35;;
61915;SDS011;47868;51.326;6.550;2024-02-26T03:41:02;5.47;;;3.30;;
61915;SDS011;47868;51.326;6.550;2024-02-26T03:43:28;3.63;;;3.33;;
61915;SDS011;47868;51.326;6.550;2024-02-26T03:45:55;4.70;;;2.92;;
61915;SDS011;47868;51.326;6.550;2024-02-26T03:48:21;4.93;;;3.30;;
61915;SDS011;47868;51.326;6.550;2024-02-26T03:50:46;3.55;;;3.22;;
61915;SDS011;47868;51.326;6.550;2024-02-26T03:53:12;4.13;;;3.40;;
61915;SDS011;47868;51.326;6.550;2024-02-26T03:55:38;4.15;;;3.38;;
61915;SDS011;47868;51.326;6.550;2024-02-26T03:58:06;3.42;;;3.13;;
61915;SDS011;47868;51.326;6.550;2024-02-26T04:00:32;6.18;;;3.28;;
61915;SDS011;47868;51.326;6.550;2024-02-26T04:02:58;3.70;;;3.10;;
61915;SDS011;47868;51.326;6.550;2024-02-26T04:05:24;3.58;;;3.28;;
61915;SDS011;47868;51.326;6.550;2024-02-26T04:07:50;4.95;;;3.22;;
61915;SDS011;47868;51.326;6.550;2024-02-26T04:10:16;4.07;;;3.63;;
61915;SDS011;47868;51.326;6.550;2024-02-26T04:12:42;4.00;;;3.33;;
61915;SDS011;47868;51.326;6.550;2024-02-26T04:15:09;4.93;;;3.13;;
61915;SDS011;47868;51.326;6.550;2024-02-26T04:17:35;4.97;;;3.70;;
61915;SDS011;47868;51.326;6.550;2024-02-26T04:20:02;3.60;;;2.80;;
61915;SDS011;47868;51.326;6.550;2024-02-26T04:22:28;4.03;;;3.00;;
61915;SDS011;47868;51.326;6.550;2024-02-26T04:24:54;2.88;;;2.67;;
61915;SDS011;47868;51.326;6.550;2024-02-26T04:27:20;2.80;;;2.47;;
61915;SDS011;47868;51.326;6.550;2024-02-26T04:29:46;3.17;;;2.80;;
61915;SDS011;47868;51.326;6.550;2024-02-26T04:32:12;3.83;;;2.85;;
61915;SDS011;47868;51.326;6.550;2024-02-26T04:34:38;3.10;;;2.80;;
61915;SDS011;47868;51.326;6.550;2024-02-26T04:37:04;5.00;;;3.30;;
61915;SDS011;47868;51.326;6.550;2024-02-26T04:39:30;3.65;;;2.85;;
61915;SDS011;47868;51.326;6.550;2024-02-26T04:41:56;3.67;;;3.33;;
61915;SDS011;47868;51.326;6.550;2024-02-26T04:44:22;3.50;;;3.20;;
61915;SDS011;47868;51.326;6.550;2024-02-26T04:46:48;3.53;;;3.22;;
61915;SDS011;47868;51.326;6.550;2024-02-26T04:49:14;5.72;;;3.80;;
61915;SDS011;47868;51.326;6.550;2024-02-26T04:51:39;3.53;;;2.88;;
61915;SDS011;47868;51.326;6.550;2024-02-26T04:54:05;3.90;;;3.28;;
61915;SDS011;47868;51.326;6.550;2024-02-26T04:56:31;3.08;;;2.75;;
61915;SDS011;47868;51.326;6.550;2024-02-26T04:58:57;3.38;;;3.03;;
61915;SDS011;47868;51.326;6.550;2024-02-26T05:01:23;4.28;;;2.83;;
61915;SDS011;47868;51.326;6.550;2024-02-26T05:03:49;3.35;;;3.05;;
61915;SDS011;47868;51.326;6.550;2024-02-26T05:06:15;3.47;;;2.70;;
61915;SDS011;47868;51.326;6.550;2024-02-26T05:08:41;6.65;;;2.78;;
61915;SDS011;47868;51.326;6.550;2024-02-26T05:11:08;3.35;;;3.05;;
61915;SDS011;47868;51.326;6.550;2024-02-26T05:13:34;4.25;;;3.20;;
61915;SDS011;47868;51.326;6.550;2024-02-26T05:16:00;4.43;;;3.53;;
61915;SDS011;47868;51.326;6.550;2024-02-26T05:18:27;4.95;;;3.72;;
61915;SDS011;47868;51.326;6.550;2024-02-26T05:20:53;4.20;;;3.90;;
61915;SDS011;47868;51.326;6.550;2024-02-26T05:23:19;5.75;;;4.40;;
61915;SDS011;47868;51.326;6.550;2024-02-26T05:25:45;5.07;;;4.05;;
61915;SDS011;47868;51.326;6.550;2024-02-26T05:28:13;4.60;;;4.20;;
61915;SDS011;47868;51.326;6.550;2024-02-26T05:30:40;5.40;;;4.28;;
61915;SDS011;47868;51.326;6.550;2024-02-26T05:33:06;4.63;;;4.15;;
61915;SDS011;47868;51.326;6.550;2024-02-26T05:35:32;4.60;;;4.20;;
61915;SDS011;47868;51.326;6.550;2024-02-26T05:37:58;5.78;;;4.30;;
61915;SDS011;47868;51.326;6.550;2024-02-26T05:40:24;5.10;;;4.60;;
61915;SDS011;47868;51.326;6.550;2024-02-26T05:42:50;5.68;;;4.57;;
61915;SDS011;47868;51.326;6.550;2024-02-26T05:45:16;4.47;;;4.07;;
61915;SDS011;47868;51.326;6.550;2024-02-26T05:47:43;5.78;;;4.18;;
61915;SDS011;47868;51.326;6.550;2024-02-26T05:50:12;4.78;;;3.97;;
61915;SDS011;47868;51.326;6.550;2024-02-26T05:52:38;3.88;;;3.35;;
61915;SDS011;47868;51.326;6.550;2024-02-26T05:55:04;4.15;;;3.75;;
61915;SDS011;47868;51.326;6.550;2024-02-26T05:57:31;5.70;;;3.72;;
61915;SDS011;47868;51.326;6.550;2024-02-26T05:59:57;3.70;;;3.35;;
61915;SDS011;47868;51.326;6.550;2024-02-26T06:02:25;5.18;;;3.33;;
61915;SDS011;47868;51.326;6.550;2024-02-26T06:04:51;4.45;;;3.67;;
61915;SDS011;47868;51.326;6.550;2024-02-26T06:07:17;3.67;;;3.00;;
61915;SDS011;47868;51.326;6.550;2024-02-26T06:09:43;4.63;;;3.20;;
61915;SDS011;47868;51.326;6.550;2024-02-26T06:12:09;3.85;;;3.45;;
61915;SDS011;47868;51.326;6.550;2024-02-26T06:14:35;3.65;;;3.35;;
61915;SDS011;47868;51.326;6.550;2024-02-26T06:17:01;4.32;;;3.88;;
61915;SDS011;47868;51.326;6.550;2024-02-26T06:19:28;4.00;;;3.50;;
61915;SDS011;47868;51.326;6.550;2024-02-26T06:21:53;5.97;;;4.05;;
61915;SDS011;47868;51.326;6.550;2024-02-26T06:24:19;4.45;;;4.03;;
61915;SDS011;47868;51.326;6.550;2024-02-26T06:26:47;5.05;;;4.45;;
61915;SDS011;47868;51.326;6.550;2024-02-26T06:29:13;4.78;;;4.20;;
61915;SDS011;47868;51.326;6.550;2024-02-26T06:31:39;6.10;;;4.10;;
61915;SDS011;47868;51.326;6.550;2024-02-26T06:34:05;4.40;;;4.00;;
61915;SDS011;47868;51.326;6.550;2024-02-26T06:36:31;5.93;;;4.47;;
61915;SDS011;47868;51.326;6.550;2024-02-26T06:38:58;5.13;;;3.92;;
61915;SDS011;47868;51.326;6.550;2024-02-26T06:41:24;4.78;;;3.70;;
61915;SDS011;47868;51.326;6.550;2024-02-26T06:43:53;3.90;;;3.50;;
61915;SDS011;47868;51.326;6.550;2024-02-26T06:46:19;5.95;;;3.45;;
61915;SDS011;47868;51.326;6.550;2024-02-26T06:48:47;3.90;;;3.58;;
61915;SDS011;47868;51.326;6.550;2024-02-26T06:51:13;4.25;;;3.80;;
61915;SDS011;47868;51.326;6.550;2024-02-26T06:53:39;5.30;;;4.07;;
61915;SDS011;47868;51.326;6.550;2024-02-26T06:56:05;4.15;;;3.75;;
61915;SDS011;47868;51.326;6.550;2024-02-26T06:58:32;5.03;;;4.35;;
61915;SDS011;47868;51.326;6.550;2024-02-26T07:00:58;8.00;;;4.80;;
61915;SDS011;47868;51.326;6.550;2024-02-26T07:03:24;5.88;;;4.65;;
61915;SDS011;47868;51.326;6.550;2024-02-26T07:05:50;6.38;;;4.10;;
61915;SDS011;47868;51.326;6.550;2024-02-26T07:08:17;6.72;;;4.25;;
61915;SDS011;47868;51.326;6.550;2024-02-26T07:10:43;5.15;;;4.35;;
61915;SDS011;47868;51.326;6.550;2024-02-26T07:13:09;4.82;;;4.25;;
61915;SDS011;47868;51.326;6.550;2024-02-26T07:15:35;6.57;;;4.32;;
61915;SDS011;47868;51.326;6.550;2024-02-26T07:18:01;6.53;;;4.45;;
61915;SDS011;47868;51.326;6.550;2024-02-26T07:20:28;4.43;;;4.10;;
61915;SDS011;47868;51.326;6.550;2024-02-26T07:22:55;6.35;;;4.88;;
61915;SDS011;47868;51.326;6.550;2024-02-26T07:25:21;7.22;;;5.25;;
61915;SDS011;47868;51.326;6.550;2024-02-26T07:27:47;5.95;;;4.57;;
61915;SDS011;47868;51.326;6.550;2024-02-26T07:30:13;5.45;;;4.95;;
61915;SDS011;47868;51.326;6.550;2024-02-26T07:32:40;6.28;;;5.05;;
61915;SDS011;47868;51.326;6.550;2024-02-26T07:35:06;5.82;;;4.60;;
61915;SDS011;47868;51.326;6.550;2024-02-26T07:37:32;8.00;;;4.70;;
61915;SDS011;47868;51.326;6.550;2024-02-26T07:39:58;4.82;;;4.32;;
61915;SDS011;47868;51.326;6.550;2024-02-26T07:42:24;4.50;;;4.10;;
61915;SDS011;47868;51.326;6.550;2024-02-26T07:44:50;4.47;;;3.83;;
61915;SDS011;47868;51.326;6.550;2024-02-26T07:47:17;4.63;;;4.00;;
61915;SDS011;47868;51.326;6.550;2024-02-26T07:49:43;7.32;;;3.95;;
61915;SDS011;47868;51.326;6.550;2024-02-26T07:52:09;6.30;;;3.83;;
61915;SDS011;47868;51.326;6.550;2024-02-26T07:54:35;4.32;;;3.92;;
61915;SDS011;47868;51.326;6.550;2024-02-26T07:57:02;5.00;;;4.38;;
61915;SDS011;47868;51.326;6.550;2024-02-26T07:59:30;5.85;;;4.65;;
61915;SDS011;47868;51.326;6.550;2024-02-26T08:01:56;6.03;;;4.50;;
61915;SDS011;47868;51.326;6.550;2024-02-26T08:04:22;10.10;;;4.70;;
61915;SDS011;47868;51.326;6.550;2024-02-26T08:06:48;6.25;;;5.00;;
61915;SDS011;47868;51.326;6.550;2024-02-26T08:09:14;7.18;;;4.53;;
61915;SDS011;47868;51.326;6.550;2024-02-26T08:11:40;9.40;;;4.72;;
61915;SDS011;47868;51.326;6.550;2024-02-26T08:14:06;7.32;;;4.30;;
61915;SDS011;47868;51.326;6.550;2024-02-26T08:16:32;5.72;;;4.35;;
61915;SDS011;47868;51.326;6.550;2024-02-26T08:18:58;4.63;;;4.18;;
61915;SDS011;47868;51.326;6.550;2024-02-26T08:21:24;7.22;;;4.50;;
61915;SDS011;47868;51.326;6.550;2024-02-26T08:23:50;5.93;;;4.90;;
61915;SDS011;47868;51.326;6.550;2024-02-26T08:26:16;5.30;;;4.80;;
61915;SDS011;47868;51.326;6.550;2024-02-26T08:28:45;8.77;;;5.20;;
61915;SDS011;47868;51.326;6.550;2024-02-26T08:31:12;7.65;;;6.43;;
61915;SDS011;47868;51.326;6.550;2024-02-26T08:33:38;8.13;;;5.85;;
61915;SDS011;47868;51.326;6.550;2024-02-26T08:36:05;5.53;;;5.00;;
61915;SDS011;47868;51.326;6.550;2024-02-26T08:38:31;6.75;;;5.32;;
61915;SDS011;47868;51.326;6.550;2024-02-26T08:40:59;6.22;;;5.43;;
61915;SDS011;47868;51.326;6.550;2024-02-26T08:43:25;6.32;;;5.57;;
61915;SDS011;47868;51.326;6.550;2024-02-26T08:45:51;8.70;;;5.45;;
61915;SDS011;47868;51.326;6.550;2024-02-26T08:48:18;6.93;;;4.90;;
61915;SDS011;47868;51.326;6.550;2024-02-26T08:50:44;14.68;;;5.45;;
61915;SDS011;47868;51.326;6.550;2024-02-26T08:53:10;6.07;;;5.05;;
61915;SDS011;47868;51.326;6.550;2024-02-26T08:55:36;7.88;;;5.32;;
61915;SDS011;47868;51.326;6.550;2024-02-26T08:58:02;10.80;;;5.28;;
61915;SDS011;47868;51.326;6.550;2024-02-26T09:00:28;9.40;;;5.70;;
61915;SDS011;47868;51.326;6.550;2024-02-26T09:02:54;5.72;;;4.88;;
61915;SDS011;47868;51.326;6.550;2024-02-26T09:05:20;5.93;;;5.32;;
61915;SDS011;47868;51.326;6.550;2024-02-26T09:07:46;6.68;;;5.20;;
61915;SDS011;47868;51.326;6.550;2024-02-26T09:10:12;6.18;;;5.32;;
61915;SDS011;47868;51.326;6.550;2024-02-26T09:12:38;5.45;;;4.63;;
61915;SDS011;47868;51.326;6.550;2024-02-26T09:15:07;7.22;;;4.85;;
61915;SDS011;47868;51.326;6.550;2024-02-26T09:17:33;6.43;;;4.97;;
61915;SDS011;47868;51.326;6.550;2024-02-26T09:19:59;5.22;;;4.60;;
61915;SDS011;47868;51.326;6.550;2024-02-26T09:22:25;10.18;;;5.20;;
61915;SDS011;47868;51.326;6.550;2024-02-26T09:24:51;5.55;;;4.88;;
61915;SDS011;47868;51.326;6.550;2024-02-26T09:27:18;7.40;;;4.95;;
61915;SDS011;47868;51.326;6.550;2024-02-26T09:29:44;9.13;;;5.20;;
61915;SDS011;47868;51.326;6.550;2024-02-26T09:32:11;7.60;;;5.72;;
61915;SDS011;47868;51.326;6.550;2024-02-26T09:34:39;5.65;;;5.10;;
61915;SDS011;47868;51.326;6.550;2024-02-26T09:37:05;10.65;;;4.85;;
61915;SDS011;47868;51.326;6.550;2024-02-26T09:39:31;6.30;;;5.32;;
61915;SDS011;47868;51.326;6.550;2024-02-26T09:41:57;6.95;;;5.82;;
61915;SDS011;47868;51.326;6.550;2024-02-26T09:44:24;9.55;;;6.07;;
61915;SDS011;47868;51.326;6.550;2024-02-26T09:46:50;9.48;;;6.25;;
61915;SDS011;47868;51.326;6.550;2024-02-26T09:49:19;9.18;;;5.97;;
61915;SDS011;47868;51.326;6.550;2024-02-26T09:51:46;9.18;;;6.30;;
61915;SDS011;47868;51.326;6.550;2024-02-26T09:54:13;10.80;;;5.97;;
61915;SDS011;47868;51.326;6.550;2024-02-26T09:56:41;6.70;;;5.35;;
61915;SDS011;47868;51.326;6.550;2024-02-26T09:59:13;7.05;;;5.63;;
61915;SDS011;47868;51.326;6.550;2024-02-26T10:01:40;7.78;;;5.72;;
61915;SDS011;47868;51.326;6.550;2024-02-26T10:04:07;8.20;;;5.70;;
61915;SDS011;47868;51.326;6.550;2024-02-26T10:06:34;6.45;;;5.63;;
61915;SDS011;47868;51.326;6.550;2024-02-26T10:09:01;6.28;;;5.47;;
61915;SDS011;47868;51.326;6.550;2024-02-26T10:11:31;6.45;;;5.45;;
61915;SDS011;47868;51.326;6.550;2024-02-26T10:13:57;9.48;;;5.65;;
61915;SDS011;47868;51.326;6.550;2024-02-26T10:16:24;6.97;;;6.00;;
61915;SDS011;47868;51.326;6.550;2024-02-26T10:18:51;7.78;;;5.57;;
61915;SDS011;47868;51.326;6.550;2024-02-26T10:21:21;12.27;;;6.10;;
61915;SDS011;47868;51.326;6.550;2024-02-26T10:23:47;6.28;;;5.68;;
61915;SDS011;47868;51.326;6.550;2024-02-26T10:26:14;7.15;;;6.03;;
61915;SDS011;47868;51.326;6.550;2024-02-26T10:28:44;7.80;;;5.60;;
61915;SDS011;47868;51.326;6.550;2024-02-26T10:31:10;10.15;;;6.07;;
61915;SDS011;47868;51.326;6.550;2024-02-26T10:33:37;6.65;;;5.75;;
61915;SDS011;47868;51.326;6.550;2024-02-26T10:36:07;6.97;;;5.90;;
61915;SDS011;47868;51.326;6.550;2024-02-26T10:38:34;6.57;;;5.60;;
61915;SDS011;47868;51.326;6.550;2024-02-26T10:41:07;8.05;;;5.82;;
61915;SDS011;47868;51.326;6.550;2024-02-26T10:43:33;6.13;;;5.53;;
61915;SDS011;47868;51.326;6.550;2024-02-26T10:45:59;8.35;;;5.60;;
61915;SDS011;47868;51.326;6.550;2024-02-26T10:48:25;5.90;;;5.30;;
61915;SDS011;47868;51.326;6.550;2024-02-26T10:50:52;8.23;;;6.57;;
61915;SDS011;47868;51.326;6.550;2024-02-26T10:53:21;8.32;;;6.03;;
61915;SDS011;47868;51.326;6.550;2024-02-26T10:55:57;8.30;;;6.40;;
61915;SDS011;47868;51.326;6.550;2024-02-26T10:58:24;7.65;;;6.85;;
61915;SDS011;47868;51.326;6.550;2024-02-26T11:00:51;7.53;;;6.78;;
61915;SDS011;47868;51.326;6.550;2024-02-26T11:03:18;6.80;;;6.13;;
61915;SDS011;47868;51.326;6.550;2024-02-26T11:05:46;9.15;;;6.38;;
61915;SDS011;47868;51.326;6.550;2024-02-26T11:08:13;9.95;;;6.90;;
61915;SDS011;47868;51.326;6.550;2024-02-26T11:10:39;8.23;;;6.70;;
61915;SDS011;47868;51.326;6.550;2024-02-26T11:13:05;7.88;;;6.30;;
61915;SDS011;47868;51.326;6.550;2024-02-26T11:15:32;7.72;;;6.40;;
61915;SDS011;47868;51.326;6.550;2024-02-26T11:17:58;7.18;;;6.40;;
61915;SDS011;47868;51.326;6.550;2024-02-26T11:20:25;8.50;;;6.88;;
61915;SDS011;47868;51.326;6.550;2024-02-26T11:22:54;10.50;;;5.97;;
61915;SDS011;47868;51.326;6.550;2024-02-26T11:25:20;7.97;;;6.60;;
61915;SDS011;47868;51.326;6.550;2024-02-26T11:27:49;7.30;;;6.35;;
61915;SDS011;47868;51.326;6.550;2024-02-26T11:30:16;8.10;;;7.10;;
61915;SDS011;47868;51.326;6.550;2024-02-26T11:32:45;7.10;;;5.53;;
61915;SDS011;47868;51.326;6.550;2024-02-26T11:35:11;7.05;;;6.35;;
61915;SDS011;47868;51.326;6.550;2024-02-26T11:37:40;7.72;;;6.18;;
61915;SDS011;47868;51.326;6.550;2024-02-26T11:40:15;8.43;;;5.90;;
61915;SDS011;47868;51.326;6.550;2024-02-26T11:42:43;7.38;;;6.10;;
61915;SDS011;47868;51.326;6.550;2024-02-26T11:47:58;12.35;;;6.78;;
61915;SDS011;47868;51.326;6.550;2024-02-26T11:50:34;8.70;;;6.60;;
61915;SDS011;47868;51.326;6.550;2024-02-26T11:55:45;9.20;;;6.53;;
61915;SDS011;47868;51.326;6.550;2024-02-26T11:58:11;8.80;;;6.75;;
61915;SDS011;47868;51.326;6.550;2024-02-26T12:00:39;8.40;;;6.50;;
61915;SDS011;47868;51.326;6.550;2024-02-26T12:03:06;8.57;;;6.72;;
61915;SDS011;47868;51.326;6.550;2024-02-26T12:05:33;8.73;;;6.30;;
61915;SDS011;47868;51.326;6.550;2024-02-26T12:08:05;7.65;;;6.68;;
61915;SDS011;47868;51.326;6.550;2024-02-26T12:10:32;8.32;;;5.70;;
61915;SDS011;47868;51.326;6.550;2024-02-26T12:13:15;6.93;;;6.22;;
61915;SDS011;47868;51.326;6.550;2024-02-26T12:15:47;9.18;;;6.63;;
61915;SDS011;47868;51.326;6.550;2024-02-26T12:18:20;7.07;;;6.03;;
61915;SDS011;47868;51.326;6.550;2024-02-26T12:20:46;8.38;;;5.97;;
61915;SDS011;47868;51.326;6.550;2024-02-26T12:23:16;10.07;;;5.97;;
61915;SDS011;47868;51.326;6.550;2024-02-26T12:25:43;8.15;;;5.88;;
61915;SDS011;47868;51.326;6.550;2024-02-26T12:28:09;8.98;;;6.90;;
61915;SDS011;47868;51.326;6.550;2024-02-26T12:30:35;11.10;;;6.72;;
61915;SDS011;47868;51.326;6.550;2024-02-26T12:33:01;9.82;;;7.38;;
61915;SDS011;47868;51.326;6.550;2024-02-26T12:35:28;14.65;;;8.25;;
61915;SDS011;47868;51.326;6.550;2024-02-26T12:37:56;10.65;;;8.65;;
61915;SDS011;47868;51.326;6.550;2024-02-26T12:40:22;13.88;;;8.45;;
61915;SDS011;47868;51.326;6.550;2024-02-26T12:42:48;11.80;;;9.05;;
61915;SDS011;47868;51.326;6.550;2024-02-26T12:45:14;13.30;;;8.98;;
61915;SDS011;47868;51.326;6.550;2024-02-26T12:47:44;11.38;;;7.95;;
61915;SDS011;47868;51.326;6.550;2024-02-26T12:50:14;10.75;;;7.38;;
61915;SDS011;47868;51.326;6.550;2024-02-26T12:52:44;8.02;;;6.22;;
61915;SDS011;47868;51.326;6.550;2024-02-26T12:55:17;8.55;;;5.85;;
61915;SDS011;47868;51.326;6.550;2024-02-26T12:57:44;7.88;;;6.32;;
61915;SDS011;47868;51.326;6.550;2024-02-26T13:00:14;11.80;;;6.95;;
61915;SDS011;47868;51.326;6.550;2024-02-26T13:02:41;8.95;;;6.70;;
61915;SDS011;47868;51.326;6.550;2024-02-26T13:05:11;8.98;;;6.63;;
61915;SDS011;47868;51.326;6.550;2024-02-26T13:07:44;8.48;;;6.85;;
61915;SDS011;47868;51.326;6.550;2024-02-26T13:10:12;7.57;;;6.70;;
61915;SDS011;47868;51.326;6.550;2024-02-26T13:12:44;11.20;;;6.95;;
61915;SDS011;47868;51.326;6.550;2024-02-26T13:15:15;8.00;;;7.03;;
61915;SDS011;47868;51.326;6.550;2024-02-26T13:17:41;9.13;;;6.82;;
61915;SDS011;47868;51.326;6.550;2024-02-26T13:20:08;9.32;;;7.50;;
61915;SDS011;47868;51.326;6.550;2024-02-26T13:22:35;10.27;;;7.82;;
61915;SDS011;47868;51.326;6.550;2024-02-26T13:25:01;10.00;;;7.22;;
61915;SDS011;47868;51.326;6.550;2024-02-26T13:27:32;7.95;;;6.68;;
61915;SDS011;47868;51.326;6.550;2024-02-26T13:30:05;12.73;;;8.05;;
61915;SDS011;47868;51.326;6.550;2024-02-26T13:32:35;11.63;;;7.45;;
61915;SDS011;47868;51.326;6.550;2024-02-26T13:35:07;8.63;;;7.20;;
61915;SDS011;47868;51.326;6.550;2024-02-26T13:37:34;8.90;;;6.88;;
61915;SDS011;47868;51.326;6.550;2024-02-26T13:40:00;8.60;;;6.63;;
61915;SDS011;47868;51.326;6.550;2024-02-26T13:42:30;10.07;;;6.90;;
61915;SDS011;47868;51.326;6.550;2024-02-26T13:44:56;9.43;;;7.72;;
61915;SDS011;47868;51.326;6.550;2024-02-26T13:47:23;11.05;;;7.65;;
61915;SDS011;47868;51.326;6.550;2024-02-26T13:49:50;8.80;;;6.38;;
61915;SDS011;47868;51.326;6.550;2024-02-26T13:52:16;8.02;;;7.13;;
61915;SDS011;47868;51.326;6.550;2024-02-26T13:54:42;9.45;;;6.57;;
61915;SDS011;47868;51.326;6.550;2024-02-26T13:57:09;9.85;;;6.90;;
61915;SDS011;47868;51.326;6.550;2024-02-26T13:59:35;10.20;;;7.00;;
61915;SDS011;47868;51.326;6.550;2024-02-26T14:02:01;9.90;;;6.75;;
61915;SDS011;47868;51.326;6.550;2024-02-26T14:04:27;9.48;;;6.88;;
61915;SDS011;47868;51.326;6.550;2024-02-26T14:06:53;8.93;;;6.30;;
61915;SDS011;47868;51.326;6.550;2024-02-26T14:09:19;11.75;;;6.88;;
61915;SDS011;47868;51.326;6.550;2024-02-26T14:11:46;8.00;;;6.35;;
61915;SDS011;47868;51.326;6.550;2024-02-26T14:14:12;10.45;;;6.57;;
61915;SDS011;47868;51.326;6.550;2024-02-26T14:16:38;8.70;;;6.40;;
61915;SDS011;47868;51.326;6.550;2024-02-26T14:19:04;10.85;;;6.82;;
61915;SDS011;47868;51.326;6.550;2024-02-26T14:21:30;6.18;;;5.50;;
61915;SDS011;47868;51.326;6.550;2024-02-26T14:23:58;6.40;;;5.57;;
61915;SDS011;47868;51.326;6.550;2024-02-26T14:26:24;7.13;;;5.72;;
61915;SDS011;47868;51.326;6.550;2024-02-26T14:28:50;6.85;;;5.15;;
61915;SDS011;47868;51.326;6.550;2024-02-26T14:31:19;5.57;;;5.05;;
61915;SDS011;47868;51.326;6.550;2024-02-26T14:33:45;9.77;;;5.35;;
61915;SDS011;47868;51.326;6.550;2024-02-26T14:36:11;6.50;;;4.75;;
61915;SDS011;47868;51.326;6.550;2024-02-26T14:38:37;7.30;;;4.70;;
61915;SDS011;47868;51.326;6.550;2024-02-26T14:41:04;6.75;;;5.28;;
61915;SDS011;47868;51.326;6.550;2024-02-26T14:43:31;7.80;;;4.80;;
61915;SDS011;47868;51.326;6.550;2024-02-26T14:45:57;4.85;;;4.28;;
61915;SDS011;47868;51.326;6.550;2024-02-26T14:48:26;4.78;;;4.22;;